• Join FlightAware (Why Join?)
  • Login
  • US Flag 
09:19PM EDT


 

Airport Tracker/Info


-or-


 

Live Flight TrackerFlight Track Log ✈ JBU1337 ✈ 30-Jul-2013 ✈ KJFK - MDST / STI

Flight Track Log - Related Links

Times and Time Zones

All times are in EDT time to prevent confusion due to time zone crossing. See the JBU1337 flight status page for this flight to view local times or setup timezone preferences in your user account.

Time Position Orientation Groundspeed Altitude Reporting Facility
EDT Latitude Longitude Course Direction KTS MPH feet Rate Location/Type
12:13AM 40.6667 -73.7500 128° Southeast 168 193 1,500  Level New York TRACON
12:14AM 40.6500 -73.7000 114° Southeast 223 257 2,400 2,220 Climbing New York TRACON
12:16AM 40.3592 -73.2970 131° Southeast  Level FlightAware Approximate
12:16AM 40.5194 -73.5175 133° Southeast 282 325 9,200  Level New York Center
12:17AM 40.2798 -73.1716 128° Southeast  Level FlightAware Approximate
12:17AM 40.4647 -73.4417 133° Southeast 301 346 10,800  Level New York Center
12:18AM 40.2031 -73.0434 128° Southeast  Level FlightAware Approximate
12:18AM 40.3900 -73.3353 133° Southeast 342 394 12,300  Level New York Center
12:19AM 40.3214 -73.2375 133° Southeast 384 442 14,200 1,860 Climbing New York Center
12:20AM 40.2592 -73.1292 127° Southeast 409 471 16,100 1,860 Climbing New York Center
12:21AM 40.1550 -73.0169 141° Southeast 407 468 18,000 1,860 Climbing New York Center
12:22AM 40.0428 -72.9942 171° South 393 452 19,900 1,680 Climbing New York Center
12:23AM 39.9267 -72.9717 172° South 402 463 21,400 1,800 Climbing New York Center
12:24AM 39.8122 -72.9517 172° South 415 478 23,600 1,740 Climbing New York Center
12:25AM 39.6981 -72.9292 171° South 415 478 25,000 1,260 Climbing New York Center
12:26AM 39.5817 -72.9094 173° South 421 484 26,200 1,140 Climbing New York Center
12:27AM 39.4656 -72.8844 171° South 426 490 27,300 1,020 Climbing New York Center
12:28AM 39.3428 -72.8619 172° South 432 497 28,300 1,020 Climbing New York Center
12:29AM 39.2181 -72.8394 172° South 442 509 29,400 1,020 Climbing New York Center
12:30AM 39.0933 -72.8197 173° South 449 517 30,400 1,140 Climbing New York Center
12:31AM 38.9644 -72.7947 171° South 461 531 31,700 960 Climbing New York Center
12:32AM 38.8397 -72.7725 172° South 461 531 32,400 780 Climbing New York Center
12:33AM 38.7131 -72.7475 171° South 461 531 33,300 780 Climbing New York Center
12:34AM 38.5842 -72.7228 171° South 473 544 34,000 540 Climbing New York Center
12:35AM 38.4533 -72.6978 171° South 473 544 34,400 360 Climbing New York Center
12:36AM 38.3200 -72.6783 173° South 473 544 34,800 300 Climbing New York Center
12:37AM 38.1828 -72.6564 173° South 488 562 35,000 60 Climbing New York Center
12:38AM 38.0433 -72.6342 173° South 496 571 35,000  Level New York Center
12:39AM 37.9061 -72.6069 171° South 502 578 35,000  Level New York Center
12:40AM 37.7689 -72.5772 170° South 502 578 35,000  Level New York Center
12:41AM 37.6317 -72.5503 171° South 502 578 35,000  Level New York Center
12:42AM 37.5131 -72.5289 172° South 495 570 35,000  Level New York Center
12:43AM 37.3653 -72.5044 173° South 510 587 35,000  Level New York Center
12:44AM 37.2219 -72.4778 172° South 510 587 35,000  Level New York Center
12:45AM 37.0867 -72.4536 172° South 503 579 35,000  Level New York Center
12:46AM 36.9472 -72.4272 171° South 503 579 35,000 -60 Level New York Center
12:47AM 36.8100 -72.4033 172° South 504 580 34,900  Descending New York Center
12:48AM 36.6764 -72.3978 178° South 498 573 35,000  Climbing New York Center
12:49AM 36.5408 -72.3975 180° South 493 567 35,000  Level New York Center
12:50AM 36.3947 -72.3994 181° South 500 575 35,000  Level New York Center
12:51AM 36.2611 -72.4017 181° South 495 570 35,000  Level New York Center
12:52AM 36.1256 -72.4014 180° South 495 570 35,000  Level New York Center
12:53AM 35.9817 -72.4058 181° South 500 575 35,000  Level New York Center
12:54AM 35.8503 -72.4031 179° South 490 564 35,000  Level New York Center
12:55AM 35.7144 -72.4053 181° South 490 564 35,000  Level New York Center
12:56AM 35.5769 -72.4075 181° South 496 571 35,000  Level New York Center
12:57AM 35.4411 -72.4147 182° South 496 571 35,000  Level New York Center
12:58AM 35.3094 -72.4247 184° South 496 571 35,000  Level New York Center
01:00AM 35.1226 -72.4080 176° South  Level FlightAware Approximate
01:02AM 35.0500 -72.4167 175° South 478 550 35,000  Level New York Oceanic (ODAPS)
01:07AM 34.2504 -72.3251 176° South  Level FlightAware Approximate
01:08AM 33.9833 -72.3000 167° South 478 550 35,000  Level FlightAware Transoceanic
01:09AM 33.8564 -72.2653 167° South 478 550 35,000  Level FlightAware Transoceanic
01:10AM 33.7295 -72.2306 167° South 478 550 35,000  Level FlightAware Transoceanic
01:10AM 33.9833 -72.3000 167° South 467 537 35,000  Level New York Oceanic (ODAPS)
01:11AM 33.6026 -72.1961 167° South 478 550 35,000  Level FlightAware Transoceanic
01:12AM 33.4756 -72.1616 167° South 478 550 35,000  Level FlightAware Transoceanic
01:13AM 33.3487 -72.1273 167° South 478 550 35,000  Level FlightAware Transoceanic
01:14AM 33.2217 -72.0930 167° South 478 550 35,000  Level FlightAware Transoceanic
01:15AM 33.0947 -72.0589 167° South 478 550 35,000  Level FlightAware Transoceanic
01:16AM 32.9678 -72.0249 167° South 467 537 35,000  Level FlightAware Transoceanic
01:17AM 32.8408 -71.9909 167° South 467 537 35,000  Level FlightAware Transoceanic
01:18AM 32.7138 -71.9571 167° South 467 537 35,000  Level FlightAware Transoceanic
01:19AM 32.5868 -71.9233 167° South 467 537 35,000  Level FlightAware Transoceanic
01:20AM 32.4598 -71.8897 167° South 467 537 35,000  Level FlightAware Transoceanic
01:21AM 32.3327 -71.8561 167° South 467 537 35,000  Level FlightAware Transoceanic
01:22AM 32.2057 -71.8227 167° South 467 537 35,000  Level FlightAware Transoceanic
01:23AM 32.0787 -71.7893 167° South 467 537 35,000  Level FlightAware Transoceanic
01:24AM 31.9516 -71.7560 167° South 467 537 35,000  Level FlightAware Transoceanic
01:25AM 31.8246 -71.7228 168° South 467 537 35,000  Level FlightAware Transoceanic
01:26AM 31.6975 -71.6897 168° South 467 537 35,000  Level FlightAware Transoceanic
01:27AM 31.5704 -71.6567 168° South 467 537 35,000  Level FlightAware Transoceanic
01:28AM 31.4433 -71.6238 168° South 467 537 35,000  Level FlightAware Transoceanic
01:29AM 31.3163 -71.5910 168° South 467 537 35,000  Level FlightAware Transoceanic
01:30AM 31.1892 -71.5582 168° South 467 537 35,000  Level FlightAware Transoceanic
01:31AM 31.0620 -71.5256 168° South 467 537 35,000  Level FlightAware Transoceanic
01:32AM 30.9349 -71.4930 168° South 467 537 35,000  Level FlightAware Transoceanic
01:33AM 30.8078 -71.4605 168° South 467 537 35,000  Level FlightAware Transoceanic
01:34AM 30.6807 -71.4281 168° South 467 537 35,000  Level FlightAware Transoceanic
01:35AM 30.5535 -71.3959 168° South 467 537 35,000  Level FlightAware Transoceanic
01:36AM 30.4264 -71.3636 168° South 467 537 35,000  Level FlightAware Transoceanic
01:37AM 30.2992 -71.3315 168° South 467 537 35,000  Level FlightAware Transoceanic
01:38AM 30.1721 -71.2994 168° South 467 537 35,000  Level FlightAware Transoceanic
01:39AM 30.0449 -71.2675 168° South 467 537 35,000  Level FlightAware Transoceanic
01:40AM 29.9177 -71.2356 168° South 467 537 35,000  Level FlightAware Transoceanic
01:41AM 29.7905 -71.2038 168° South 467 537 35,000  Level FlightAware Transoceanic
01:42AM 29.6633 -71.1720 168° South 467 537 35,000  Level FlightAware Transoceanic
01:43AM 29.5361 -71.1404 168° South 467 537 35,000  Level FlightAware Transoceanic
01:44AM 29.4089 -71.1088 168° South 467 537 35,000  Level FlightAware Transoceanic
01:45AM 29.2817 -71.0773 168° South 467 537 35,000  Level FlightAware Transoceanic
01:46AM 29.1545 -71.0459 168° South 467 537 35,000  Level FlightAware Transoceanic
01:47AM 29.0272 -71.0146 168° South 467 537 35,000  Level FlightAware Transoceanic
01:48AM 28.9000 -70.9833 168° South 467 537 35,000  Level FlightAware Transoceanic
01:49AM 28.7819 -70.9541 168° South 467 537 35,000  Level FlightAware Transoceanic
01:50AM 28.6638 -70.9249 168° South 467 537 35,000  Level FlightAware Transoceanic
01:50AM 28.9000 -70.9833 168° South 447 514 35,000  Level New York Oceanic (ODAPS)
01:51AM 28.5457 -70.8957 168° South 467 537 35,000  Level FlightAware Transoceanic
01:52AM 28.4276 -70.8667 168° South 467 537 35,000  Level FlightAware Transoceanic
01:53AM 28.3095 -70.8376 168° South 467 537 35,000  Level FlightAware Transoceanic
01:54AM 28.1914 -70.8087 168° South 467 537 35,000  Level FlightAware Transoceanic
01:55AM 28.0732 -70.7798 168° South 467 537 35,000  Level FlightAware Transoceanic
01:56AM 27.9256 -70.7438 168° South 447 514 35,000  Level FlightAware Transoceanic
01:57AM 27.8038 -70.7142 168° South 447 514 35,000  Level FlightAware Transoceanic
01:58AM 27.6819 -70.6846 168° South 447 514 35,000  Level FlightAware Transoceanic
01:59AM 27.5601 -70.6551 168° South 447 514 35,000  Level FlightAware Transoceanic
02:00AM 27.4382 -70.6257 168° South 447 514 35,000  Level FlightAware Transoceanic
02:01AM 27.3164 -70.5963 168° South 447 514 35,000  Level FlightAware Transoceanic
02:02AM 27.1945 -70.5670 168° South 447 514 35,000  Level FlightAware Transoceanic
02:03AM 27.0726 -70.5378 168° South 447 514 35,000  Level FlightAware Transoceanic
02:04AM 26.9508 -70.5086 168° South 447 514 35,000  Level FlightAware Transoceanic
02:05AM 26.8289 -70.4795 168° South 447 514 35,000  Level FlightAware Transoceanic
02:06AM 26.7070 -70.4504 168° South 447 514 35,000  Level FlightAware Transoceanic
02:07AM 26.5851 -70.4214 168° South 447 514 35,000  Level FlightAware Transoceanic
02:08AM 26.4632 -70.3925 168° South 447 514 35,000  Level FlightAware Transoceanic
02:09AM 26.3413 -70.3636 168° South 447 514 35,000  Level FlightAware Transoceanic
02:10AM 26.2194 -70.3348 168° South 447 514 35,000  Level FlightAware Transoceanic
02:11AM 26.0975 -70.3061 168° South 447 514 35,000  Level FlightAware Transoceanic
02:12AM 25.9756 -70.2774 168° South 447 514 35,000  Level FlightAware Transoceanic
02:13AM 25.8536 -70.2488 168° South 447 514 35,000  Level FlightAware Transoceanic
02:14AM 25.7317 -70.2202 168° South 447 514 35,000  Level FlightAware Transoceanic
02:15AM 25.6098 -70.1917 168° South 447 514 35,000  Level FlightAware Transoceanic
02:16AM 25.4878 -70.1632 168° South 447 514 35,000  Level FlightAware Transoceanic
02:17AM 25.3659 -70.1348 168° South 447 514 35,000  Level FlightAware Transoceanic
02:17AM 25.4153 -70.1689 185° South 449 517 35,000  Level Miami Center
02:18AM 25.2439 -70.1065 168° South 447 514 35,000  Level FlightAware Transoceanic
02:18AM 25.2931 -70.1411 168° South 454 522 35,000  Level Miami Center
02:19AM 25.1220 -70.0782 168° South 447 514 35,000  Level FlightAware Transoceanic
02:19AM 25.1750 -70.1133 168° South 443 510 35,000  Level Miami Center
02:20AM 25.0000 -70.0500 185° South 447 514 35,000  Level FlightAware Transoceanic
02:20AM 25.0569 -70.0878 169° South 437 503 35,000  Level Miami Center
02:21AM 24.8862 -70.0617 185° South 447 514 35,000  Level FlightAware Transoceanic
02:21AM 24.9369 -70.0669 171° South 431 496 35,000  Level Miami Center
02:22AM 24.7725 -70.0733 185° South 447 514 35,000  Level FlightAware Transoceanic
02:22AM 24.8200 -70.0667 180° South 431 496 35,000  Level Miami Center
02:23AM 24.6588 -70.0849 185° South 447 514 35,000  Level FlightAware Transoceanic
02:23AM 24.6983 -70.0528 174° South 431 496 35,000  Level Miami Center
02:24AM 24.5814 -70.0478 178° South 426 490 35,000  Level Miami Center
02:25AM 24.4642 -70.0383 176° South 426 490 35,000  Level Miami Center
02:26AM 24.3469 -70.0333 178° South 421 484 35,000  Level Miami Center
02:27AM 24.2294 -70.0192 174° South 426 490 35,000  Level Miami Center
02:28AM 24.1125 -70.0119 177° South 426 490 35,000  Level Miami Center
02:29AM 23.9953 -70.0069 178° South 426 490 35,000  Level Miami Center
02:30AM 23.8778 -69.9931 174° South 426 490 35,000  Level Miami Center
02:31AM 23.7608 -69.9903 179° South 426 490 35,000  Level Miami Center
02:32AM 23.6369 -69.9744 173° South 426 490 35,000  Level Miami Center
02:33AM 23.5156 -69.9650 176° South 433 498 35,000  Level Miami Center
02:34AM 23.3942 -69.9558 176° South 438 504 35,000  Level Miami Center
02:35AM 23.2728 -69.9444 175° South 444 511 35,000  Level Miami Center
02:36AM 23.1514 -69.9375 177° South 444 511 35,000  Level Miami Center
02:37AM 23.0319 -69.9281 176° South 444 511 35,000  Level Miami Center
02:38AM 22.9108 -69.9211 177° South 444 511 35,000  Level Miami Center
02:39AM 22.7906 -69.9386 188° South 439 505 35,000  Level Miami Center
02:40AM 22.6806 -69.9917 204° Southwest 439 505 35,000  Level Miami Center
02:41AM 22.5836 -70.0664 215° Southwest 422 486 35,000  Level Miami Center
02:42AM 22.4872 -70.1478 218° Southwest 427 491 35,000  Level Miami Center
02:43AM 22.3992 -70.2353 223° Southwest 433 498 35,000  Level Miami Center
02:44AM 22.3072 -70.3228 221° Southwest 438 504 35,000  Level Miami Center
02:45AM 22.2192 -70.4100 223° Southwest 443 510 35,000  Level Miami Center
02:46AM 22.1292 -70.4997 223° Southwest 443 510 35,000  Level Miami Center
02:47AM 22.0408 -70.5844 222° Southwest 443 510 35,000  Level Miami Center
02:48AM 21.9547 -70.6733 224° Southwest 443 510 35,000  Level Miami Center
02:49AM 21.8644 -70.7625 223° Southwest 443 510 35,000  Level Miami Center
02:50AM 21.7719 -70.8472 220° Southwest 443 510 35,000 -60 Level Miami Center
02:51AM 21.6772 -70.9294 219° Southwest 443 510 34,900 -720 Descending Miami Center
02:52AM 21.5711 -70.9967 211° Southwest 448 516 33,600 -1,860 Descending Miami Center
02:53AM 21.4747 -71.0342 200° South 443 510 31,300 -9,420 Descending Miami Center
02:54AM 21.3339 -71.0603 190° South 464 534 15,000 -1,920 Descending Miami Center
02:55AM 21.2106 -71.0544 177° South 450 518 27,400 5,580 Climbing Miami Center
02:56AM 21.0947 -71.0217 165° South 430 495 26,300 -1,020 Descending Miami Center
02:57AM 20.9808 -70.9867 164° South 430 495 25,400 -960 Descending Miami Center
02:58AM 20.8644 -70.9472 162° South 430 495 24,400 -1,020 Descending Miami Center
02:59AM 20.7528 -70.9144 165° South 435 501 23,400 -960 Descending Miami Center
03:00AM 20.6392 -70.8839 166° South 425 489 22,500 -960 Descending Miami Center
03:01AM 20.5294 -70.8511 164° South 419 482 21,500 -1,320 Descending Miami Center
03:02AM 20.4219 -70.8206 165° South 414 476 20,000 -1,560 Descending Miami Center
03:04AM 20.2652 -70.7352 161° South  Level FlightAware Approximate
03:11AM 19.4000 -70.6000 North  Level FlightAware Approximate
03:12AM 19.4061 -70.6047 North  Level Estimated
03:13AM 19.4061 -70.6047 North  Level Estimated
03:14AM 19.4061 -70.6047 North  Level Estimated
03:15AM 19.4061 -70.6047 North  Level Estimated
03:16AM 19.4061 -70.6047 North  Level Estimated
03:17AM 19.4061 -70.6047 North  Level Estimated
03:18AM 19.4061 -70.6047 North  Level Estimated
03:19AM 19.4061 -70.6047 North  Level Estimated
03:20AM 19.4061 -70.6047 North  Level Estimated
03:21AM 19.4061 -70.6047 North  Level Estimated
03:22AM 19.4061 -70.6047 North  Level Estimated
03:23AM 19.4061 -70.6047 North  Level Estimated
03:24AM 19.4061 -70.6047 North  Level Estimated
03:25AM 19.4061 -70.6047 North  Level Estimated
03:26AM 19.4061 -70.6047 North  Level Estimated